Time,TemperatureF,DewpointF,PressureIn,WindDirection,WindDirectionDegrees,WindSpeedMPH,WindSpeedGustMPH,Humidity,HourlyPrecipIn,Conditions,Clouds,dailyrainin,SoftwareType,DateUTC
2013-06-28 00:00:00,70.9,67.8,29.80,NNW,339,1.0,6.0,90,0.00,,,1.19,Wunderground v.1.15,2013-06-28 05:00:00,
2013-06-28 00:10:00,70.9,67.8,29.80,NW,309,2.0,6.0,90,0.00,,,1.19,Wunderground v.1.15,2013-06-28 05:10:00,
2013-06-28 00:15:00,70.9,67.8,29.79,NW,311,2.0,6.0,90,0.00,,,1.19,Wunderground v.1.15,2013-06-28 05:15:00,
2013-06-28 00:25:00,70.6,67.5,29.79,NNW,328,2.0,6.0,90,0.00,,,1.19,Wunderground v.1.15,2013-06-28 05:25:00,
2013-06-28 00:30:00,70.6,67.5,29.78,NNW,330,2.0,2.0,90,0.00,,,1.19,Wunderground v.1.15,2013-06-28 05:30:00,
2013-06-28 00:40:00,70.6,67.5,29.78,NNW,332,1.0,6.0,90,0.00,,,1.19,Wunderground v.1.15,2013-06-28 05:40:00,
2013-06-28 00:50:00,70.4,67.3,29.79,NNW,333,0.0,6.0,90,0.00,,,1.19,Wunderground v.1.15,2013-06-28 05:50:00,
2013-06-28 00:55:00,70.1,67.0,29.79,NNW,333,0.0,6.0,90,0.00,,,1.19,Wunderground v.1.15,2013-06-28 05:55:00,
2013-06-28 01:00:00,70.1,67.0,29.78,NNW,332,0.0,6.0,90,0.00,,,1.19,Wunderground v.1.15,2013-06-28 06:00:00,
2013-06-28 01:05:00,70.1,67.0,29.78,NNW,332,0.0,6.0,90,0.00,,,1.19,Wunderground v.1.15,2013-06-28 06:05:00,
2013-06-28 01:15:00,70.1,67.0,29.79,NNW,332,0.0,6.0,90,0.00,,,1.19,Wunderground v.1.15,2013-06-28 06:15:00,
2013-06-28 01:20:00,69.8,66.7,29.79,NNW,332,0.0,1.0,90,0.00,,,1.19,Wunderground v.1.15,2013-06-28 06:20:00,
2013-06-28 01:30:00,69.6,66.5,29.78,NNW,332,0.0,1.0,90,0.00,,,1.19,Wunderground v.1.15,2013-06-28 06:30:00,
2013-06-28 01:40:00,69.6,66.9,29.78,NNW,332,0.0,1.0,91,0.00,,,1.19,Wunderground v.1.15,2013-06-28 06:40:00,
2013-06-28 01:45:00,69.9,67.2,29.79,NW,304,0.0,1.0,91,0.00,,,1.19,Wunderground v.1.15,2013-06-28 06:45:00,
2013-06-28 01:55:00,69.8,67.1,29.79,WNW,285,1.0,2.0,91,0.00,,,1.19,Wunderground v.1.15,2013-06-28 06:55:00,
2013-06-28 02:00:00,69.9,67.2,29.79,SW,229,2.0,2.0,91,0.00,,,1.19,Wunderground v.1.15,2013-06-28 07:00:00,
2013-06-28 02:10:00,69.3,66.2,29.79,SSW,206,2.0,2.0,90,0.00,,,1.19,Wunderground v.1.15,2013-06-28 07:10:00,
2013-06-28 02:20:00,68.8,66.1,29.78,SSW,213,2.0,2.0,91,0.00,,,1.19,Wunderground v.1.15,2013-06-28 07:20:00,
2013-06-28 02:25:00,69.1,66.4,29.78,WSW,239,2.0,6.0,91,0.00,,,1.19,Wunderground v.1.15,2013-06-28 07:25:00,
2013-06-28 02:35:00,68.8,66.1,29.78,WSW,258,2.0,6.0,91,0.00,,,1.19,Wunderground v.1.15,2013-06-28 07:35:00,
2013-06-28 02:45:00,68.4,65.7,29.78,West,260,1.0,6.0,91,0.00,,,1.19,Wunderground v.1.15,2013-06-28 07:45:00,
2013-06-28 02:55:00,68.4,65.7,29.78,West,260,2.0,4.0,91,0.00,,,1.19,Wunderground v.1.15,2013-06-28 07:55:00,
2013-06-28 03:00:00,68.4,65.7,29.77,West,261,1.0,4.0,91,0.00,,,1.19,Wunderground v.1.15,2013-06-28 08:00:00,
2013-06-28 03:10:00,68.4,65.7,29.77,West,261,1.0,1.0,91,0.00,,,1.19,Wunderground v.1.15,2013-06-28 08:10:00,
2013-06-28 03:20:00,68.3,65.6,29.77,West,261,0.0,4.0,91,0.00,,,1.19,Wunderground v.1.15,2013-06-28 08:20:00,
2013-06-28 03:30:00,68.1,65.4,29.77,West,261,0.0,4.0,91,0.00,,,1.19,Wunderground v.1.15,2013-06-28 08:30:00,
2013-06-28 03:35:00,68.1,65.4,29.77,West,261,0.0,4.0,91,0.00,,,1.19,Wunderground v.1.15,2013-06-28 08:35:00,
2013-06-28 03:45:00,68.1,65.4,29.76,West,265,1.0,4.0,91,0.00,,,1.19,Wunderground v.1.15,2013-06-28 08:45:00,
2013-06-28 03:55:00,68.1,65.4,29.76,West,271,2.0,6.0,91,0.00,,,1.19,Wunderground v.1.15,2013-06-28 08:55:00,
2013-06-28 04:00:00,68.3,65.6,29.77,WSW,256,2.0,6.0,91,0.00,,,1.19,Wunderground v.1.15,2013-06-28 09:00:00,
2013-06-28 04:10:00,68.4,65.7,29.77,West,260,2.0,6.0,91,0.00,,,1.19,Wunderground v.1.15,2013-06-28 09:10:00,
2013-06-28 04:20:00,68.6,65.5,29.77,West,264,3.0,6.0,90,0.00,,,1.19,Wunderground v.1.15,2013-06-28 09:20:00,
2013-06-28 04:30:00,68.6,65.5,29.77,West,278,3.0,3.0,90,0.00,,,1.19,Wunderground v.1.15,2013-06-28 09:30:00,
2013-06-28 04:40:00,68.1,65.1,29.77,West,281,1.0,6.0,90,0.00,,,1.19,Wunderground v.1.15,2013-06-28 09:40:00,
2013-06-28 04:45:00,67.6,64.6,29.77,WNW,282,2.0,6.0,90,0.00,,,1.19,Wunderground v.1.15,2013-06-28 09:45:00,
2013-06-28 04:55:00,67.3,64.3,29.77,WNW,292,2.0,7.0,90,0.00,,,1.19,Wunderground v.1.15,2013-06-28 09:55:00,
2013-06-28 05:05:00,67.4,64.4,29.78,WNW,299,2.0,7.0,90,0.00,,,1.19,Wunderground v.1.15,2013-06-28 10:05:00,
2013-06-28 05:15:00,67.6,64.6,29.78,NW,323,3.0,7.0,90,0.00,,,1.19,Wunderground v.1.15,2013-06-28 10:15:00,
2013-06-28 05:25:00,67.6,64.6,29.78,NW,312,3.0,6.0,90,0.00,,,1.19,Wunderground v.1.15,2013-06-28 10:25:00,
2013-06-28 05:30:00,67.6,64.6,29.78,NW,313,3.0,3.0,90,0.00,,,1.19,Wunderground v.1.15,2013-06-28 10:30:00,
2013-06-28 05:40:00,67.6,64.6,29.78,NW,312,2.0,2.0,90,0.00,,,1.19,Wunderground v.1.15,2013-06-28 10:40:00,
2013-06-28 05:50:00,67.4,64.4,29.78,NW,312,1.0,1.0,90,0.00,,,1.19,Wunderground v.1.15,2013-06-28 10:50:00,
2013-06-28 06:00:00,67.3,64.3,29.79,WNW,292,1.0,6.0,90,0.00,,,1.19,Wunderground v.1.15,2013-06-28 11:00:00,
2013-06-28 06:05:00,67.3,64.3,29.79,WNW,302,2.0,6.0,90,0.00,,,1.19,Wunderground v.1.15,2013-06-28 11:05:00,
2013-06-28 06:10:00,67.3,64.3,29.79,WNW,302,2.0,2.0,90,0.00,,,1.19,Wunderground v.1.15,2013-06-28 11:10:00,
2013-06-28 06:20:00,67.3,64.3,29.79,WNW,302,2.0,6.0,90,0.00,,,0.00,Wunderground v.1.15,2013-06-28 11:20:00,
2013-06-28 06:25:00,67.4,64.4,29.79,WNW,302,2.0,6.0,90,0.00,,,0.00,Wunderground v.1.15,2013-06-28 11:25:00,
2013-06-28 06:35:00,67.4,64.4,29.80,NW,306,2.0,6.0,90,0.00,,,0.00,Wunderground v.1.15,2013-06-28 11:35:00,
2013-06-28 06:45:00,67.9,64.9,29.80,WNW,302,2.0,6.0,90,0.00,,,0.00,Wunderground v.1.15,2013-06-28 11:45:00,
2013-06-28 06:50:00,68.1,65.1,29.80,WNW,302,1.0,6.0,90,0.00,,,0.00,Wunderground v.1.15,2013-06-28 11:50:00,
2013-06-28 07:00:00,68.8,65.4,29.79,WNW,302,1.0,1.0,89,0.00,,,0.00,Wunderground v.1.15,2013-06-28 12:00:00,
2013-06-28 07:10:00,69.4,66.0,29.79,NW,312,2.0,6.0,89,0.00,,,0.00,Wunderground v.1.15,2013-06-28 12:10:00,
2013-06-28 07:20:00,69.8,66.4,29.81,WNW,301,3.0,7.0,89,0.00,,,0.01,Wunderground v.1.15,2013-06-28 12:20:00,
2013-06-28 07:25:00,70.1,66.4,29.81,NW,309,3.0,7.0,88,0.00,,,0.01,Wunderground v.1.15,2013-06-28 12:25:00,
2013-06-28 07:35:00,70.1,66.0,29.81,WNW,302,4.0,7.0,87,0.00,,,0.01,Wunderground v.1.15,2013-06-28 12:35:00,
2013-06-28 07:45:00,70.8,67.1,29.80,NW,313,5.0,5.0,88,0.00,,,0.01,Wunderground v.1.15,2013-06-28 12:45:00,
2013-06-28 07:55:00,71.1,66.7,29.80,WNW,289,6.0,9.0,86,0.00,,,0.01,Wunderground v.1.15,2013-06-28 12:55:00,
2013-06-28 08:05:00,71.1,66.7,29.80,NW,313,6.0,9.0,86,0.00,,,0.01,Wunderground v.1.15,2013-06-28 13:05:00,
2013-06-28 08:15:00,71.8,67.4,29.80,NW,320,7.0,9.0,86,0.00,,,0.01,Wunderground v.1.15,2013-06-28 13:15:00,
2013-06-28 08:20:00,72.1,67.3,29.80,NW,325,6.0,10.0,85,0.00,,,0.01,Wunderground v.1.15,2013-06-28 13:20:00,
2013-06-28 08:30:00,71.8,67.0,29.81,NW,320,7.0,10.0,85,0.00,,,0.01,Wunderground v.1.15,2013-06-28 13:30:00,
2013-06-28 08:40:00,71.6,66.8,29.81,NNW,343,5.0,10.0,85,0.00,,,0.01,Wunderground v.1.15,2013-06-28 13:40:00,
2013-06-28 08:50:00,71.8,67.0,29.81,NW,311,6.0,13.0,85,0.00,,,0.01,Wunderground v.1.15,2013-06-28 13:50:00,
2013-06-28 08:55:00,72.1,67.3,29.81,NNW,328,6.0,13.0,85,0.00,,,0.01,Wunderground v.1.15,2013-06-28 13:55:00,
2013-06-28 09:05:00,73.0,67.5,29.81,NW,322,7.0,13.0,83,0.00,,,0.01,Wunderground v.1.15,2013-06-28 14:05:00,
2013-06-28 09:15:00,73.5,67.7,29.81,NNW,330,8.0,13.0,82,0.00,,,0.01,Wunderground v.1.15,2013-06-28 14:15:00,
2013-06-28 09:25:00,74.2,68.0,29.81,NW,306,7.0,13.0,81,0.00,,,0.01,Wunderground v.1.15,2013-06-28 14:25:00,
2013-06-28 09:35:00,74.7,68.5,29.80,NW,312,6.0,13.0,81,0.00,,,0.01,Wunderground v.1.15,2013-06-28 14:35:00,
2013-06-28 09:40:00,74.7,68.1,29.80,NW,308,7.0,13.0,80,0.00,,,0.01,Wunderground v.1.15,2013-06-28 14:40:00,
2013-06-28 09:50:00,75.3,68.3,29.80,NW,305,6.0,11.0,79,0.00,,,0.01,Wunderground v.1.15,2013-06-28 14:50:00,
2013-06-28 10:00:00,76.1,68.0,29.80,North,353,6.0,11.0,76,0.00,,,0.01,Wunderground v.1.15,2013-06-28 15:00:00,
2013-06-28 10:10:00,77.0,67.3,29.80,NW,311,8.0,11.0,72,0.00,,,0.01,Wunderground v.1.15,2013-06-28 15:10:00,
2013-06-28 10:15:00,77.0,66.5,29.80,North,0,7.0,11.0,70,0.00,,,0.01,Wunderground v.1.15,2013-06-28 15:15:00,
2013-06-28 10:25:00,77.6,66.6,29.80,NW,318,7.0,15.0,69,0.00,,,0.01,Wunderground v.1.15,2013-06-28 15:25:00,
2013-06-28 10:35:00,77.9,66.9,29.81,NNW,342,7.0,15.0,69,0.00,,,0.01,Wunderground v.1.15,2013-06-28 15:35:00,
2013-06-28 10:45:00,78.3,67.7,29.81,North,0,8.0,9.0,70,0.00,,,0.01,Wunderground v.1.15,2013-06-28 15:45:00,
2013-06-28 10:55:00,78.3,66.4,29.81,North,0,8.0,14.0,67,0.00,,,0.01,Wunderground v.1.15,2013-06-28 15:55:00,
2013-06-28 11:05:00,78.6,65.8,29.81,NNW,347,8.0,14.0,65,0.00,,,0.01,Wunderground v.1.15,2013-06-28 16:05:00,
2013-06-28 11:10:00,79.0,66.7,29.81,North,0,8.0,8.0,66,0.00,,,0.01,Wunderground v.1.15,2013-06-28 16:10:00,
2013-06-28 11:20:00,79.8,66.1,29.81,North,349,7.0,15.0,63,0.00,,,0.01,Wunderground v.1.15,2013-06-28 16:20:00,
2013-06-28 11:30:00,79.8,65.2,29.81,NW,322,8.0,15.0,61,0.00,,,0.01,Wunderground v.1.15,2013-06-28 16:30:00,
2013-06-28 11:40:00,79.9,63.3,29.81,North,356,9.0,15.0,57,0.00,,,0.01,Wunderground v.1.15,2013-06-28 16:40:00,
2013-06-28 11:50:00,80.5,63.9,29.81,North,352,7.0,16.0,57,0.00,,,0.01,Wunderground v.1.15,2013-06-28 16:50:00,
2013-06-28 11:55:00,80.7,63.0,29.81,NNW,347,8.0,16.0,55,0.00,,,0.01,Wunderground v.1.15,2013-06-28 16:55:00,
2013-06-28 12:05:00,80.7,62.5,29.81,North,11,9.0,9.0,54,0.00,,,0.01,Wunderground v.1.15,2013-06-28 17:05:00,
2013-06-28 12:15:00,81.2,63.5,29.81,NNW,337,7.0,16.0,55,0.00,,,0.01,Wunderground v.1.15,2013-06-28 17:15:00,
2013-06-28 12:25:00,81.6,63.3,29.81,North,11,8.0,17.0,54,0.00,,,0.01,Wunderground v.1.15,2013-06-28 17:25:00,
2013-06-28 12:30:00,81.6,62.3,29.81,NNW,342,8.0,17.0,52,0.00,,,0.01,Wunderground v.1.15,2013-06-28 17:30:00,
2013-06-28 12:40:00,81.6,61.2,29.81,North,354,10.0,17.0,50,0.00,,,0.01,Wunderground v.1.15,2013-06-28 17:40:00,
2013-06-28 12:50:00,82.0,63.2,29.81,NNW,339,7.0,7.0,53,0.00,,,0.01,Wunderground v.1.15,2013-06-28 17:50:00,
2013-06-28 13:00:00,82.2,63.4,29.80,NNW,336,7.0,17.0,53,0.00,,,0.01,Wunderground v.1.15,2013-06-28 18:00:00,
2013-06-28 13:05:00,81.6,62.3,29.80,NNW,337,10.0,17.0,52,0.00,,,0.01,Wunderground v.1.15,2013-06-28 18:05:00,
2013-06-28 13:15:00,82.0,63.2,29.80,North,0,8.0,11.0,53,0.00,,,0.01,Wunderground v.1.15,2013-06-28 18:15:00,
2013-06-28 13:25:00,82.2,62.8,29.80,NW,311,8.0,17.0,52,0.00,,,0.01,Wunderground v.1.15,2013-06-28 18:25:00,
2013-06-28 13:30:00,82.2,61.7,29.80,NNW,337,9.0,9.0,50,0.00,,,0.01,Wunderground v.1.15,2013-06-28 18:30:00,
2013-06-28 13:40:00,82.4,61.9,29.80,WNW,291,9.0,17.0,50,0.00,,,0.01,Wunderground v.1.15,2013-06-28 18:40:00,
2013-06-28 13:45:00,82.0,60.4,29.79,NW,320,10.0,17.0,48,0.00,,,0.01,Wunderground v.1.15,2013-06-28 18:45:00,
2013-06-28 13:55:00,82.4,61.3,29.79,North,352,9.0,20.0,49,0.00,,,0.01,Wunderground v.1.15,2013-06-28 18:55:00,
2013-06-28 14:05:00,82.4,60.1,29.79,North,356,11.0,20.0,47,0.00,,,0.01,Wunderground v.1.15,2013-06-28 19:05:00,
2013-06-28 14:10:00,82.6,60.3,29.79,NNW,339,9.0,9.0,47,0.00,,,0.01,Wunderground v.1.15,2013-06-28 19:10:00,
2013-06-28 14:20:00,82.8,58.0,29.78,NNW,328,8.0,8.0,43,0.00,,,0.01,Wunderground v.1.15,2013-06-28 19:20:00,
2013-06-28 14:25:00,83.0,60.1,29.78,NNW,347,8.0,15.0,46,0.00,,,0.01,Wunderground v.1.15,2013-06-28 19:25:00,
2013-06-28 14:35:00,83.2,60.9,29.78,WNW,301,9.0,16.0,47,0.00,,,0.01,Wunderground v.1.15,2013-06-28 19:35:00,
2013-06-28 14:45:00,83.4,60.4,29.78,WNW,301,8.0,11.0,46,0.00,,,0.01,Wunderground v.1.15,2013-06-28 19:45:00,
2013-06-28 14:50:00,83.2,60.3,29.78,NW,312,9.0,18.0,46,0.00,,,0.01,Wunderground v.1.15,2013-06-28 19:50:00,
2013-06-28 15:00:00,83.0,57.5,29.77,NNW,339,10.0,10.0,42,0.00,,,0.01,Wunderground v.1.15,2013-06-28 20:00:00,
2013-06-28 15:10:00,83.4,60.4,29.77,NW,319,9.0,18.0,46,0.00,,,0.01,Wunderground v.1.15,2013-06-28 20:10:00,
2013-06-28 15:15:00,83.2,58.4,29.77,NW,319,11.0,18.0,43,0.00,,,0.01,Wunderground v.1.15,2013-06-28 20:15:00,
2013-06-28 15:25:00,83.4,57.2,29.77,NW,311,10.0,15.0,41,0.00,,,0.01,Wunderground v.1.15,2013-06-28 20:25:00,
2013-06-28 15:35:00,83.4,57.9,29.77,North,352,10.0,20.0,42,0.00,,,0.01,Wunderground v.1.15,2013-06-28 20:35:00,
2013-06-28 15:40:00,83.6,58.1,29.77,NW,319,10.0,10.0,42,0.00,,,0.01,Wunderground v.1.15,2013-06-28 20:40:00,
2013-06-28 15:50:00,83.4,57.2,29.76,NW,323,11.0,11.0,41,0.00,,,0.01,Wunderground v.1.15,2013-06-28 20:50:00,
2013-06-28 16:00:00,83.2,56.4,29.76,NW,305,12.0,21.0,40,0.00,,,0.01,Wunderground v.1.15,2013-06-28 21:00:00,
2013-06-28 16:10:00,83.6,56.0,29.76,NNW,333,10.0,10.0,39,0.00,,,0.01,Wunderground v.1.15,2013-06-28 21:10:00,
2013-06-28 16:15:00,83.6,56.7,29.75,NNW,336,9.0,21.0,40,0.00,,,0.01,Wunderground v.1.15,2013-06-28 21:15:00,
2013-06-28 16:25:00,83.6,57.4,29.75,NW,308,11.0,14.0,41,0.00,,,0.01,Wunderground v.1.15,2013-06-28 21:25:00,
2013-06-28 16:35:00,83.6,56.7,29.75,NNW,329,11.0,21.0,40,0.00,,,0.01,Wunderground v.1.15,2013-06-28 21:35:00,
2013-06-28 16:40:00,83.6,56.0,29.75,NNW,344,10.0,21.0,39,0.00,,,0.01,Wunderground v.1.15,2013-06-28 21:40:00,
2013-06-28 16:50:00,83.6,56.0,29.75,NW,323,11.0,11.0,39,0.00,,,0.01,Wunderground v.1.15,2013-06-28 21:50:00,
2013-06-28 17:00:00,82.4,57.0,29.75,NW,309,11.0,21.0,42,0.00,,,0.01,Wunderground v.1.15,2013-06-28 22:00:00,
2013-06-28 17:05:00,82.4,56.3,29.75,NNW,336,11.0,21.0,41,0.00,,,0.01,Wunderground v.1.15,2013-06-28 22:05:00,
2013-06-28 17:15:00,82.4,59.5,29.75,NNW,343,10.0,11.0,46,0.00,,,0.01,Wunderground v.1.15,2013-06-28 22:15:00,
2013-06-28 17:25:00,82.2,58.7,29.75,NNW,342,11.0,21.0,45,0.00,,,0.01,Wunderground v.1.15,2013-06-28 22:25:00,
2013-06-28 17:35:00,80.9,58.2,29.75,NW,311,9.0,15.0,46,0.00,,,0.01,Wunderground v.1.15,2013-06-28 22:35:00,
2013-06-28 17:40:00,80.3,57.6,29.75,NW,318,10.0,10.0,46,0.00,,,0.01,Wunderground v.1.15,2013-06-28 22:40:00,
2013-06-28 17:50:00,80.3,57.6,29.75,NW,319,10.0,10.0,46,0.00,,,0.01,Wunderground v.1.15,2013-06-28 22:50:00,
2013-06-28 17:55:00,80.1,56.8,29.75,North,349,10.0,23.0,45,0.00,,,0.01,Wunderground v.1.15,2013-06-28 22:55:00,
2013-06-28 18:05:00,80.5,57.8,29.74,North,354,10.0,23.0,46,0.00,,,0.01,Wunderground v.1.15,2013-06-28 23:05:00,
2013-06-28 18:15:00,80.9,57.6,29.74,NNW,329,8.0,23.0,45,0.00,,,0.01,Wunderground v.1.15,2013-06-28 23:15:00,
2013-06-28 18:25:00,81.4,59.2,29.74,NNW,344,8.0,23.0,47,0.00,,,0.01,Wunderground v.1.15,2013-06-28 23:25:00,
2013-06-28 18:30:00,81.6,60.0,29.73,North,354,8.0,8.0,48,0.00,,,0.01,Wunderground v.1.15,2013-06-28 23:30:00,
2013-06-28 18:40:00,82.0,58.6,29.73,NW,318,8.0,23.0,45,0.00,,,0.01,Wunderground v.1.15,2013-06-28 23:40:00,
2013-06-28 18:50:00,82.0,58.6,29.72,NW,313,7.0,7.0,45,0.00,,,0.01,Wunderground v.1.15,2013-06-28 23:50:00,
2013-06-28 18:55:00,81.1,57.1,29.72,WNW,299,7.0,9.0,44,0.00,,,0.01,Wunderground v.1.15,2013-06-28 23:55:00,
2013-06-28 19:05:00,79.9,56.7,29.72,NW,309,8.0,15.0,45,0.00,,,0.01,Wunderground v.1.15,2013-06-29 00:05:00,
2013-06-28 19:15:00,79.4,56.8,29.72,NNW,336,8.0,8.0,46,0.00,,,0.01,Wunderground v.1.15,2013-06-29 00:15:00,
2013-06-28 19:25:00,79.0,57.0,29.72,NW,319,6.0,16.0,47,0.00,,,0.01,Wunderground v.1.15,2013-06-29 00:25:00,
2013-06-28 19:35:00,78.6,57.3,29.72,NNW,328,6.0,16.0,48,0.00,,,0.01,Wunderground v.1.15,2013-06-29 00:35:00,
2013-06-28 19:40:00,78.1,57.9,29.72,NW,308,6.0,6.0,50,0.00,,,0.01,Wunderground v.1.15,2013-06-29 00:40:00,
2013-06-28 19:50:00,77.7,58.1,29.72,NW,308,6.0,11.0,51,0.00,,,0.01,Wunderground v.1.15,2013-06-29 00:50:00,
2013-06-28 20:00:00,77.2,59.3,29.72,NW,319,5.0,11.0,54,0.00,,,0.01,Wunderground v.1.15,2013-06-29 01:00:00,
2013-06-28 20:10:00,76.7,59.8,29.72,NW,312,6.0,6.0,56,0.00,,,0.01,Wunderground v.1.15,2013-06-29 01:10:00,
2013-06-28 20:15:00,76.3,59.9,29.72,NW,318,5.0,11.0,57,0.00,,,0.01,Wunderground v.1.15,2013-06-29 01:15:00,
2013-06-28 20:25:00,75.8,61.4,29.72,NW,316,2.0,10.0,61,0.00,,,0.01,Wunderground v.1.15,2013-06-29 01:25:00,
2013-06-28 20:35:00,74.9,61.9,29.72,NW,315,1.0,10.0,64,0.00,,,0.01,Wunderground v.1.15,2013-06-29 01:35:00,
2013-06-28 20:45:00,74.0,61.9,29.72,NW,315,0.0,10.0,66,0.00,,,0.01,Wunderground v.1.15,2013-06-29 01:45:00,
2013-06-28 20:55:00,73.2,61.6,29.72,NW,311,1.0,6.0,67,0.00,,,0.01,Wunderground v.1.15,2013-06-29 01:55:00,
2013-06-28 21:00:00,72.8,61.6,29.72,NW,311,0.0,6.0,68,0.00,,,0.01,Wunderground v.1.15,2013-06-29 02:00:00,
2013-06-28 21:10:00,72.0,61.7,29.72,NW,311,0.0,6.0,70,0.00,,,0.01,Wunderground v.1.15,2013-06-29 02:10:00,
2013-06-28 21:20:00,71.3,61.4,29.72,West,274,1.0,4.0,71,0.00,,,0.01,Wunderground v.1.15,2013-06-29 02:20:00,
2013-06-28 21:25:00,71.5,61.2,29.72,WNW,285,2.0,4.0,70,0.00,,,0.01,Wunderground v.1.15,2013-06-29 02:25:00,
2013-06-28 21:35:00,71.3,61.4,29.72,WNW,298,2.0,4.0,71,0.00,,,0.01,Wunderground v.1.15,2013-06-29 02:35:00,
2013-06-28 21:45:00,71.1,61.2,29.73,WNW,285,2.0,4.0,71,0.00,,,0.01,Wunderground v.1.15,2013-06-29 02:45:00,
2013-06-28 21:55:00,70.8,61.3,29.73,WNW,295,2.0,6.0,72,0.00,,,0.01,Wunderground v.1.15,2013-06-29 02:55:00,
2013-06-28 22:00:00,70.4,60.9,29.73,WNW,296,3.0,3.0,72,0.00,,,0.01,Wunderground v.1.15,2013-06-29 03:00:00,
2013-06-28 22:10:00,70.1,60.7,29.73,NW,304,3.0,6.0,72,0.00,,,0.01,Wunderground v.1.15,2013-06-29 03:10:00,
2013-06-28 22:20:00,70.1,60.7,29.73,WNW,298,3.0,3.0,72,0.00,,,0.01,Wunderground v.1.15,2013-06-29 03:20:00,
2013-06-28 22:30:00,70.3,60.8,29.73,NW,305,3.0,3.0,72,0.00,,,0.01,Wunderground v.1.15,2013-06-29 03:30:00,
2013-06-28 22:35:00,70.3,60.8,29.73,WNW,295,3.0,4.0,72,0.00,,,0.01,Wunderground v.1.15,2013-06-29 03:35:00,
2013-06-28 22:45:00,70.1,60.7,29.74,WNW,296,3.0,6.0,72,0.00,,,0.01,Wunderground v.1.15,2013-06-29 03:45:00,
2013-06-28 22:55:00,69.9,60.5,29.74,NW,312,3.0,7.0,72,0.00,,,0.01,Wunderground v.1.15,2013-06-29 03:55:00,
2013-06-28 23:05:00,69.4,60.4,29.74,WNW,299,3.0,7.0,73,0.00,,,0.01,Wunderground v.1.15,2013-06-29 04:05:00,
2013-06-28 23:10:00,69.3,60.3,29.74,WNW,299,3.0,3.0,73,0.00,,,0.01,Wunderground v.1.15,2013-06-29 04:10:00,
2013-06-28 23:15:00,69.1,60.1,29.74,NW,306,3.0,7.0,73,0.00,,,0.01,Wunderground v.1.15,2013-06-29 04:15:00,
2013-06-28 23:20:00,68.9,59.9,29.74,WNW,296,3.0,3.0,73,0.00,,,0.01,Wunderground v.1.15,2013-06-29 04:20:00,
2013-06-28 23:30:00,68.8,60.2,29.73,NW,304,3.0,7.0,74,0.00,,,0.01,Wunderground v.1.15,2013-06-29 04:30:00,
2013-06-28 23:35:00,68.6,60.0,29.73,WNW,292,3.0,7.0,74,0.00,,,0.01,Wunderground v.1.15,2013-06-29 04:35:00,
2013-06-28 23:45:00,68.3,60.1,29.73,WNW,296,3.0,7.0,75,0.00,,,0.01,Wunderground v.1.15,2013-06-29 04:45:00,
2013-06-28 23:55:00,68.1,59.9,29.73,WNW,302,3.0,6.0,75,0.00,,,0.01,Wunderground v.1.15,2013-06-29 04:55:00,